Relevés horaires Matro (Suisse)


Relevés horaires à Matro - Dimanche 24 Août 2014
Heure UTC1 Température [°C] Vent [km/h] Hum. [%] Pres.4 [hPa] Visi. [Km] Nébu. [octa] Préc.5 [mm] Cond.
2m. Res. Ros. Dir.2 Vit. Moy. Raf.3
23:00 5.1 5.1 -1.0 NNO 3.7 9.3 13.0 65 850(0.1/3h) -- -- -- --
22:00 4.7 2.9 -0.8 NNO 7.4 13.0 18.5 67 850(0.3/3h) -- -- -- --
21:00 4.7 1.4 -0.4 NNO 14.8 20.4 27.8 69 850(0.9/3h) -- -- -- --
20:00 5.3 1.9 -0.2 NNO 16.7 20.4 27.8 68 850(1.1/3h) -- -- -- --
19:00 5.4 2.3 0.5 NNO 14.8 18.5 25.9 71 850(0.7/3h) -- -- -- --
18:00 6.4 4.1 0.3 NNO 11.1 11.1 24.1 65 850(0.1/3h) -- -- -- --
17:00 6.9 5.5 -- NO 7.4 7.4 16.7 -- 850(0.0/3h) -- -- -- --
16:00 9.5 8.6 0.1 SSO 7.4 7.4 16.7 52 850(-0.1/3h) -- -- -- --
15:00 9.1 8.1 -0.2 SSO 7.4 11.1 24.1 52 850(-0.3/3h) -- -- -- --
14:00 9.2 7.8 -0.3 SO 9.3 7.4 22.2 51 850(-0.3/3h) -- -- -- --
13:00 7.8 6.6 -3.0 ONO 7.4 11.1 20.4 46 850(-0.2/3h) -- -- -- --
12:00 7.4 4.7 -1.8 NO 14.8 22.2 37.0 52 850(0.0/3h) -- -- -- --
11:00 6.4 3.2 -1.9 NNO 16.7 20.4 37.0 55 850(0.2/3h) -- -- -- --
10:00 6.1 2.6 -1.8 NO 18.5 18.5 33.3 57 850(0.8/3h) -- -- -- --
09:00 5.3 1.6 -0.4 NNO 18.5 22.2 35.2 67 850(1.0/3h) -- -- -- --
08:00 4.8 1 -1.3 NNO 18.5 22.2 33.3 65 850(1.0/3h) -- -- -- --
07:00 4.0 0 -0.5 NNO 18.5 22.2 35.2 72 850(1.1/3h) -- -- -- --
06:00 3.9 -0.1 -1.2 NNO 18.5 29.6 35.2 69 850(1.0/3h) -- -- -- --
05:00 4.3 0.6 -2.0 NO 16.7 22.2 31.5 63 850(0.5/3h) -- -- -- --
04:00 4.5 0.9 -3.2 NO 16.7 20.4 27.8 57 850(-0.4/3h) -- -- -- --
03:00 4.8 1.2 -3.6 NNO 16.7 29.6 35.2 54 850(-0.7/3h) -- -- -- --
02:00 4.7 0.4 -3.6 NNO 22.2 29.6 35.2 55 850(-0.7/3h) -- -- -- --
01:00 4.6 -0.3 -3.2 NNO 27.8 27.8 33.3 57 850(-0.4/3h) -- -- -- --
00:00 4.8 0.6 -3.3 NNO 22.2 31.5 42.6 56 850(-0.1/3h) -- -- -- --

1 Coordinated Universal Time. Actuellement il est 04:00 locale et 02:00 UTC.

2 Le vent souffle depuis la direction indiquée vers la direction oposée.

3 Les rafales max. sont disponible 40 min après l'heure du relevé.

4 Pour les stations d'altitude (plus de 600m) le géopotentiel du niveau le plus proche de la pression obligatoire est indiqué.

5 Les stations disposant d'un diffuseur peuvent indiquer "trace". Cela signifie que des précipitations ont touchés le sol mais que la quantité est inférieure à 0.1 mm.

Copyright

Les données affichées sur cette page sont la propriété exclusive de Météo Suisse.

Récapitulatif de la journée
Température [°C] Vent [km/h] Ensoleillement4 [h] Precipitations totale5 [mm] Pression [Hpa]
Min1 Max.2 Moy.3 Max. Min Max.
3.4 9.8 19 42.6 12 h 6 min 0 850.0 850.0

1 Température minimale relevée entre 18:00 UTC la veille et 18:00 UTC le jour donné.

2 Température maximale relevée entre 06:00 UTC le jour donné et 06:00 UTC le lendemain.

3 Vent moyen de la journée basé sur les relevés horaires.

4 Ensoleillement en heures relevé entre 06:00 UTC la veille et 06:00 UTC le jour donné.

5 Précipitations totales tombées entre 06:00 UTC la jour donné et 06:00 UTC le lendemain.

Graphiques horaires